Time;durP1;ratioP1;P1;durP2;ratioP2;P2;SDS_P1;SDS_P2;PMS_P1;PMS_P2;Temp;Humidity;BMP_temperature;BMP_pressure;BME280_temperature;BME280_humidity;BME280_pressure;Samples;Min_cycle;Max_cycle;Signal;HPM_P1;HPM_P2
2021/10/24 06:09:53;;;;;;;;;;;;;;;;;;5315576;23;20056;-67
2021/10/24 06:12:41;;;;;;;24.77;12.73;;;;;;;;;;4914607;29;19922;-69
2021/10/24 06:15:08;;;;;;;22.52;12.55;;;;;;;;;;4915004;29;20107;-68
2021/10/24 06:17:35;;;;;;;33.90;13.52;;;;;;;;;;4914660;29;20032;-69
2021/10/24 06:20:01;;;;;;;19.42;9.43;;;;;;;;;;4914666;29;20123;-67
2021/10/24 06:22:27;;;;;;;20.67;9.07;;;;;;;;;;4914295;29;20107;-71
2021/10/24 06:24:54;;;;;;;16.42;7.22;;;;;;;;;;4898214;29;20047;-74
2021/10/24 06:27:20;;;;;;;15.88;7.95;;;;;;;;;;4914657;29;20028;-72
2021/10/24 06:29:46;;;;;;;19.08;9.10;;;;;;;;;;4914794;29;20028;-73
2021/10/24 06:32:12;;;;;;;18.73;9.38;;;;;;;;;;4914781;29;20024;-74
2021/10/24 06:34:38;;;;;;;20.92;9.70;;;;;;;;;;4914373;29;20071;-72
2021/10/24 06:37:04;;;;;;;22.42;9.13;;;;;;;;;;4914509;29;20028;-73
2021/10/24 06:39:30;;;;;;;22.23;9.75;;;;;;;;;;4914398;29;20123;-71
2021/10/24 06:41:56;;;;;;;22.58;10.55;;;;;;;;;;4914222;29;20032;-75
2021/10/24 06:44:22;;;;;;;20.13;9.68;;;;;;;;;;4914024;29;20115;-78
2021/10/24 06:46:48;;;;;;;18.45;8.50;;;;;;;;;;4914462;29;20028;-81
2021/10/24 06:49:14;;;;;;;12.55;7.18;;;;;;;;;;4900005;29;20025;-84
2021/10/24 06:51:40;;;;;;;11.90;6.70;;;;;;;;;;4917936;29;20432;-80
2021/10/24 06:54:06;;;;;;;14.88;7.72;;;;;;;;;;4917854;29;20444;-72
2021/10/24 06:56:33;;;;;;;13.90;6.68;;;;;;;;;;4918226;29;20095;-76
2021/10/24 06:58:59;;;;;;;15.38;7.13;;;;;;;;;;4913201;29;20043;-77
2021/10/24 07:01:25;;;;;;;14.40;6.80;;;;;;;;;;4907843;29;20033;-70
2021/10/24 07:03:51;;;;;;;15.50;6.85;;;;;;;;;;4891485;29;20024;-65
2021/10/24 07:06:17;;;;;;;20.63;7.10;;;;;;;;;;4907406;29;20476;-75
2021/10/24 07:08:43;;;;;;;16.33;7.25;;;;;;;;;;4920653;29;20028;-78
2021/10/24 07:11:09;;;;;;;15.90;7.00;;;;;;;;;;4918717;29;20052;-76
2021/10/24 07:13:35;;;;;;;16.73;7.35;;;;;;;;;;4916073;29;20039;-77
2021/10/24 07:16:01;;;;;;;15.98;7.55;;;;;;;;;;4916171;29;20477;-80
2021/10/24 07:18:28;;;;;;;15.18;7.13;;;;;;;;;;4916047;29;20523;-75
2021/10/24 07:20:54;;;;;;;16.55;7.57;;;;;;;;;;4915406;29;20084;-78
2021/10/24 07:23:20;;;;;;;13.55;7.40;;;;;;;;;;4915390;29;20035;-78
2021/10/24 07:25:46;;;;;;;14.18;7.38;;;;;;;;;;4896415;29;20024;-81
2021/10/24 07:28:15;;;;;;;17.98;7.82;;;;;;;;;;4905213;29;20155;-78
2021/10/24 07:30:41;;;;;;;16.70;8.20;;;;;;;;;;4909381;29;20802;-82
2021/10/24 07:33:07;;;;;;;21.48;7.93;;;;;;;;;;4913805;29;20491;-79
2021/10/24 07:35:33;;;;;;;15.38;7.40;;;;;;;;;;4914325;29;20472;-75
2021/10/24 07:38:03;;;;;;;16.30;7.63;;;;;;;;;;4914711;29;20480;-74
2021/10/24 07:40:29;;;;;;;17.30;7.72;;;;;;;;;;4915696;29;20459;-78
2021/10/24 07:42:55;;;;;;;15.90;7.88;;;;;;;;;;4915708;29;20032;-79
2021/10/24 07:45:22;;;;;;;13.00;7.40;;;;;;;;;;4897935;29;20036;-79
2021/10/24 07:47:50;;;;;;;15.68;7.45;;;;;;;;;;4916003;29;20160;-72
2021/10/24 07:50:17;;;;;;;16.60;8.27;;;;;;;;;;4916496;29;20107;-77
2021/10/24 07:52:43;;;;;;;14.57;7.75;;;;;;;;;;4898479;29;20048;-74
2021/10/24 07:55:12;;;;;;;20.17;8.45;;;;;;;;;;4916604;29;20029;-78
2021/10/24 07:57:47;;;;;;;17.08;7.53;;;;;;;;;;4916081;29;20039;-77
2021/10/24 08:00:13;;;;;;;13.95;7.05;;;;;;;;;;4912916;29;20027;-78
2021/10/24 08:02:39;;;;;;;11.55;6.45;;;;;;;;;;4916145;29;20024;-81
2021/10/24 08:05:05;;;;;;;14.15;6.82;;;;;;;;;;4911553;29;20435;-78
2021/10/24 08:07:35;;;;;;;15.25;6.80;;;;;;;;;;4914829;29;20024;-83
2021/10/24 08:10:01;;;;;;;15.25;7.10;;;;;;;;;;4915076;29;20402;-79
2021/10/24 08:12:29;;;;;;;14.45;6.80;;;;;;;;;;4914888;29;20059;-68
2021/10/24 08:14:56;;;;;;;17.80;6.75;;;;;;;;;;4898503;29;20028;-79
2021/10/24 08:17:22;;;;;;;14.45;6.18;;;;;;;;;;4916044;29;20035;-75
2021/10/24 08:19:48;;;;;;;16.73;5.82;;;;;;;;;;4916293;29;20063;-79
2021/10/24 08:22:18;;;;;;;13.13;5.53;;;;;;;;;;4915891;29;20036;-67
2021/10/24 08:24:44;;;;;;;13.57;7.15;;;;;;;;;;4915846;29;20025;-79
2021/10/24 08:27:10;;;;;;;14.90;6.63;;;;;;;;;;4913569;29;20487;-73
2021/10/24 08:29:37;;;;;;;18.23;7.18;;;;;;;;;;4914708;29;20039;-79
2021/10/24 08:32:06;;;;;;;15.02;6.88;;;;;;;;;;4914900;29;20139;-77
2021/10/24 08:34:34;;;;;;;14.27;6.70;;;;;;;;;;4914031;29;20047;-73
2021/10/24 08:37:01;;;;;;;13.65;6.35;;;;;;;;;;4914134;29;20044;-72
2021/10/24 08:39:27;;;;;;;11.30;6.28;;;;;;;;;;4896945;29;20572;-74
2021/10/24 08:41:54;;;;;;;12.07;6.28;;;;;;;;;;4898843;29;20040;-80
2021/10/24 08:44:20;;;;;;;15.35;6.60;;;;;;;;;;4915730;29;20028;-84
2021/10/24 08:46:46;;;;;;;13.48;5.97;;;;;;;;;;4915440;29;20437;-77
2021/10/24 08:49:13;;;;;;;13.90;6.07;;;;;;;;;;4915349;29;20468;-77
2021/10/24 08:51:39;;;;;;;13.15;5.18;;;;;;;;;;4898270;29;20086;-79
2021/10/24 08:54:07;;;;;;;14.95;6.10;;;;;;;;;;4914474;29;20044;-72
2021/10/24 08:56:34;;;;;;;14.90;7.13;;;;;;;;;;4915105;29;20488;-71
2021/10/24 08:59:01;;;;;;;16.00;6.32;;;;;;;;;;4897851;29;20040;-76
2021/10/24 09:01:28;;;;;;;11.93;6.40;;;;;;;;;;4915671;29;20059;-80
2021/10/24 09:04:12;;;;;;;12.63;5.05;;;;;;;;;;4915174;29;20032;-70
2021/10/24 09:06:44;;;;;;;13.90;5.70;;;;;;;;;;4915276;29;20032;-72
2021/10/24 09:09:14;;;;;;;17.13;6.15;;;;;;;;;;4914276;29;20037;-77
2021/10/24 09:11:41;;;;;;;13.13;6.28;;;;;;;;;;4915167;29;20043;-73
2021/10/24 09:14:07;;;;;;;17.15;6.43;;;;;;;;;;4915180;29;20124;-76
2021/10/24 09:16:51;;;;;;;13.77;5.85;;;;;;;;;;4913541;29;20103;-71
2021/10/24 09:19:17;;;;;;;14.02;5.78;;;;;;;;;;4910033;29;20131;-67
2021/10/24 09:21:43;;;;;;;12.13;5.57;;;;;;;;;;4913827;29;20083;-73
2021/10/24 09:24:10;;;;;;;15.55;5.57;;;;;;;;;;4914057;29;20499;-74
2021/10/24 09:26:36;;;;;;;11.95;5.85;;;;;;;;;;4911791;29;20043;-72
2021/10/24 09:29:10;;;;;;;13.65;5.88;;;;;;;;;;4896027;29;20056;-73
2021/10/24 09:31:50;;;;;;;15.38;5.80;;;;;;;;;;4906596;29;20062;-72
2021/10/24 09:34:21;;;;;;;15.93;6.93;;;;;;;;;;4914673;29;20044;-72
2021/10/24 09:36:51;;;;;;;17.20;6.47;;;;;;;;;;4896800;29;20488;-74
2021/10/24 09:39:17;;;;;;;14.85;6.47;;;;;;;;;;4914647;29;20040;-73
2021/10/24 09:41:43;;;;;;;16.10;5.97;;;;;;;;;;4914253;29;20024;-69
2021/10/24 09:44:14;;;;;;;16.73;8.90;;;;;;;;;;4914360;29;20099;-69
2021/10/24 09:46:56;;;;;;;12.40;6.22;;;;;;;;;;4914226;29;20080;-72
2021/10/24 09:49:23;;;;;;;11.75;6.15;;;;;;;;;;4914444;29;20074;-72
2021/10/24 09:51:49;;;;;;;11.57;5.53;;;;;;;;;;4914175;29;20020;-69
2021/10/24 09:54:22;;;;;;;13.35;6.72;;;;;;;;;;4914320;29;20036;-72
2021/10/24 09:56:48;;;;;;;15.75;6.65;;;;;;;;;;4914207;29;20048;-72
2021/10/24 09:59:16;;;;;;;17.65;5.90;;;;;;;;;;4914353;29;20039;-69
2021/10/24 10:01:44;;;;;;;15.05;6.35;;;;;;;;;;4914035;29;20024;-72
2021/10/24 10:04:10;;;;;;;12.90;7.22;;;;;;;;;;4914245;29;20444;-66
2021/10/24 10:06:37;;;;;;;17.17;7.95;;;;;;;;;;4914181;29;20540;-70
2021/10/24 10:09:03;;;;;;;14.25;7.18;;;;;;;;;;4914120;29;20384;-71
2021/10/24 10:11:35;;;;;;;10.75;5.07;;;;;;;;;;4914481;29;20176;-72
2021/10/24 10:14:02;;;;;;;12.40;5.43;;;;;;;;;;4914136;29;20122;-72
2021/10/24 10:16:31;;;;;;;11.27;5.20;;;;;;;;;;4914070;29;20051;-71
2021/10/24 10:18:57;;;;;;;12.38;4.95;;;;;;;;;;4913816;29;20032;-70
2021/10/24 10:21:28;;;;;;;12.75;5.07;;;;;;;;;;4913764;29;20034;-74
2021/10/24 10:23:55;;;;;;;10.65;4.32;;;;;;;;;;4898529;29;20040;-73
2021/10/24 10:26:31;;;;;;;16.75;7.13;;;;;;;;;;4917710;29;20481;-73
2021/10/24 10:28:57;;;;;;;11.23;5.00;;;;;;;;;;4917846;29;20039;-73
2021/10/24 10:31:23;;;;;;;12.20;5.43;;;;;;;;;;4918330;29;20025;-71
2021/10/24 10:34:03;;;;;;;10.45;4.13;;;;;;;;;;4917666;29;20068;-73
2021/10/24 10:36:44;;;;;;;16.17;5.15;;;;;;;;;;4918176;29;20031;-69
2021/10/24 10:39:29;;;;;;;11.05;4.85;;;;;;;;;;4917786;29;20143;-72
2021/10/24 10:41:55;;;;;;;8.98;4.22;;;;;;;;;;4917923;29;20039;-72
2021/10/24 10:44:21;;;;;;;11.52;4.60;;;;;;;;;;4918074;29;20072;-71
2021/10/24 10:46:47;;;;;;;10.48;4.32;;;;;;;;;;4917965;29;20111;-66
2021/10/24 10:49:24;;;;;;;10.95;4.78;;;;;;;;;;4918206;29;20032;-71
2021/10/24 10:51:50;;;;;;;13.05;4.60;;;;;;;;;;4917999;29;20028;-70
2021/10/24 10:54:17;;;;;;;12.88;4.88;;;;;;;;;;4917605;29;20099;-73
2021/10/24 10:56:44;;;;;;;12.75;6.10;;;;;;;;;;4917984;29;20078;-72
2021/10/24 10:59:14;;;;;;;13.90;6.82;;;;;;;;;;4917572;29;20096;-72
2021/10/24 11:01:40;;;;;;;12.52;4.75;;;;;;;;;;4917652;29;20032;-68
2021/10/24 11:04:36;;;;;;;10.43;4.00;;;;;;;;;;4917698;29;20028;-72
2021/10/24 11:07:02;;;;;;;13.50;6.70;;;;;;;;;;4822233;29;20042;-72
2021/10/24 11:09:42;;;;;;;15.95;7.28;;;;;;;;;;4821921;29;20042;-72
2021/10/24 11:12:09;;;;;;;11.40;6.25;;;;;;;;;;4822175;29;20125;-71
2021/10/24 11:14:35;;;;;;;11.63;5.80;;;;;;;;;;4822250;29;20138;-64
2021/10/24 11:17:01;;;;;;;9.80;5.20;;;;;;;;;;4822192;29;20174;-72
2021/10/24 11:22:10;;;;;;;8.95;4.60;;;;;;;;;;4822065;29;20035;-72
2021/10/24 11:24:37;;;;;;;14.15;4.95;;;;;;;;;;4821781;29;20042;-72
2021/10/24 11:27:04;;;;;;;11.90;5.00;;;;;;;;;;4822052;29;20368;-71
2021/10/24 11:29:30;;;;;;;17.27;6.22;;;;;;;;;;4821918;29;20121;-70
2021/10/24 11:32:14;;;;;;;11.60;4.97;;;;;;;;;;4822192;29;20034;-72
2021/10/24 11:34:41;;;;;;;17.88;9.13;;;;;;;;;;4820695;29;20050;-71
2021/10/24 11:37:07;;;;;;;9.68;4.20;;;;;;;;;;4821933;29;20381;-70
2021/10/24 11:39:33;;;;;;;12.50;4.10;;;;;;;;;;4821622;29;20110;-72
2021/10/24 11:42:09;;;;;;;11.05;3.92;;;;;;;;;;4821752;29;20057;-66
2021/10/24 11:44:35;;;;;;;14.90;5.05;;;;;;;;;;4915428;29;20529;-72
2021/10/24 11:47:16;;;;;;;9.57;3.63;;;;;;;;;;4916739;29;20028;-71
2021/10/24 11:49:50;;;;;;;12.00;5.28;;;;;;;;;;4916799;29;20062;-71
2021/10/24 11:52:26;;;;;;;6.13;3.22;;;;;;;;;;4916911;29;20563;-72
2021/10/24 11:55:05;;;;;;;6.93;2.83;;;;;;;;;;4916635;29;20385;-73
2021/10/24 12:02:58;;;;;;;6.20;2.42;;;;;;;;;;4916306;29;20404;-68
2021/10/24 12:05:26;;;;;;;5.03;2.47;;;;;;;;;;4916310;29;20255;-71
2021/10/24 12:07:52;;;;;;;5.95;3.10;;;;;;;;;;4916446;29;20095;-72
2021/10/24 12:10:20;;;;;;;8.50;3.33;;;;;;;;;;4915399;29;20052;-72
2021/10/24 12:12:46;;;;;;;11.38;3.78;;;;;;;;;;4916324;29;20028;-71
2021/10/24 12:15:15;;;;;;;8.23;3.95;;;;;;;;;;4916032;29;20043;-71
2021/10/24 12:17:43;;;;;;;11.07;5.80;;;;;;;;;;4916420;29;20024;-71
2021/10/24 12:20:11;;;;;;;12.30;4.93;;;;;;;;;;4916143;29;20036;-72
2021/10/24 12:22:38;;;;;;;7.93;3.55;;;;;;;;;;4916099;29;20035;-74
2021/10/24 12:25:04;;;;;;;10.48;4.97;;;;;;;;;;4916354;29;20027;-67
2021/10/24 12:27:33;;;;;;;12.07;5.05;;;;;;;;;;4916123;29;20064;-72
2021/10/24 12:30:02;;;;;;;11.02;3.83;;;;;;;;;;4915650;29;20046;-68
2021/10/24 12:32:29;;;;;;;16.38;6.22;;;;;;;;;;4915598;29;20495;-70
2021/10/24 12:35:02;;;;;;;8.20;3.33;;;;;;;;;;4915787;29;20568;-71
2021/10/24 12:37:28;;;;;;;12.93;5.20;;;;;;;;;;4915736;29;20147;-73
2021/10/24 12:40:13;;;;;;;12.52;6.53;;;;;;;;;;4915833;29;20460;-73
2021/10/24 12:42:39;;;;;;;9.57;4.72;;;;;;;;;;4915646;29;20102;-73
2021/10/24 12:45:15;;;;;;;11.48;4.40;;;;;;;;;;4915717;29;20069;-72
2021/10/24 12:47:53;;;;;;;6.85;3.17;;;;;;;;;;4915608;29;20381;-72
2021/10/24 12:50:27;;;;;;;11.48;4.82;;;;;;;;;;4915602;29;20472;-70
2021/10/24 12:53:13;;;;;;;13.07;5.53;;;;;;;;;;4915097;29;20038;-73
2021/10/24 12:55:40;;;;;;;10.50;3.85;;;;;;;;;;4915487;29;20404;-74
2021/10/24 12:58:06;;;;;;;8.07;2.75;;;;;;;;;;4915744;29;20053;-73
2021/10/24 13:00:34;;;;;;;10.40;4.88;;;;;;;;;;4915563;29;20032;-73
2021/10/24 13:03:00;;;;;;;7.65;2.45;;;;;;;;;;4915152;29;20039;-73
2021/10/24 13:05:26;;;;;;;6.38;3.00;;;;;;;;;;4915290;29;20039;-70
2021/10/24 13:07:52;;;;;;;25.77;13.82;;;;;;;;;;4915176;29;20036;-74
2021/10/24 13:10:19;;;;;;;13.30;7.00;;;;;;;;;;4914972;29;20044;-74
2021/10/24 13:12:45;;;;;;;23.90;6.00;;;;;;;;;;4915400;29;20028;-73
2021/10/24 13:15:11;;;;;;;10.68;4.25;;;;;;;;;;4915105;29;20404;-74
2021/10/24 13:17:37;;;;;;;6.95;3.53;;;;;;;;;;4915397;29;20084;-75
2021/10/24 13:20:04;;;;;;;10.35;3.72;;;;;;;;;;4915105;29;20480;-73
2021/10/24 13:25:15;;;;;;;14.98;4.63;;;;;;;;;;4914910;29;20047;-73
2021/10/24 13:27:42;;;;;;;9.52;3.80;;;;;;;;;;4915047;29;20424;-73
2021/10/24 13:30:09;;;;;;;5.80;2.15;;;;;;;;;;4915179;29;20024;-73
2021/10/24 13:32:35;;;;;;;7.15;2.22;;;;;;;;;;4914865;29;20118;-74
2021/10/24 13:35:01;;;;;;;9.57;4.35;;;;;;;;;;4914651;29;20032;-73
2021/10/24 13:37:27;;;;;;;7.53;3.03;;;;;;;;;;4914820;29;20024;-71
2021/10/24 13:39:53;;;;;;;6.75;2.58;;;;;;;;;;4914658;29;20396;-72
2021/10/24 13:42:22;;;;;;;6.22;2.50;;;;;;;;;;4914592;29;20103;-71
2021/10/24 13:44:48;;;;;;;8.05;3.22;;;;;;;;;;4914716;29;20539;-72
2021/10/24 13:47:14;;;;;;;6.50;2.38;;;;;;;;;;4914751;29;20080;-72
2021/10/24 13:49:40;;;;;;;8.63;4.22;;;;;;;;;;4914876;29;20046;-73
2021/10/24 13:52:06;;;;;;;6.97;2.97;;;;;;;;;;4915047;29;20088;-74
2021/10/24 13:54:32;;;;;;;7.43;3.25;;;;;;;;;;4914666;29;20484;-74
2021/10/24 13:56:58;;;;;;;7.18;3.10;;;;;;;;;;4914834;29;20036;-73
2021/10/24 13:59:24;;;;;;;6.80;2.45;;;;;;;;;;4914138;29;20032;-70
2021/10/24 14:01:50;;;;;;;6.82;2.38;;;;;;;;;;4914464;29;20024;-72
2021/10/24 14:04:16;;;;;;;8.77;2.88;;;;;;;;;;4914351;29;20168;-73
2021/10/24 14:06:42;;;;;;;9.95;3.55;;;;;;;;;;4914649;29;20028;-72
2021/10/24 14:09:08;;;;;;;8.18;3.35;;;;;;;;;;4914530;29;20119;-72
2021/10/24 14:11:34;;;;;;;7.03;2.70;;;;;;;;;;4914298;29;20063;-72
2021/10/24 14:14:00;;;;;;;11.05;4.18;;;;;;;;;;4914570;29;20065;-71
2021/10/24 14:16:26;;;;;;;8.55;3.50;;;;;;;;;;4914621;29;20477;-73
2021/10/24 14:18:52;;;;;;;8.75;3.50;;;;;;;;;;4914346;29;20032;-73
2021/10/24 14:21:20;;;;;;;9.32;3.38;;;;;;;;;;4914205;29;20028;-72
2021/10/24 14:23:46;;;;;;;7.10;2.70;;;;;;;;;;4914656;29;20433;-70
2021/10/24 14:26:12;;;;;;;5.82;2.78;;;;;;;;;;4914955;29;20092;-72
2021/10/24 14:28:38;;;;;;;6.07;2.75;;;;;;;;;;4914532;29;20051;-73
2021/10/24 14:31:05;;;;;;;9.88;3.95;;;;;;;;;;4897507;29;20056;-71
2021/10/24 14:33:32;;;;;;;8.23;2.90;;;;;;;;;;4914422;29;20388;-72
2021/10/24 14:35:59;;;;;;;7.72;3.47;;;;;;;;;;4914409;29;20029;-72
2021/10/24 14:38:25;;;;;;;7.38;2.97;;;;;;;;;;4914569;29;20027;-74
2021/10/24 14:40:51;;;;;;;10.30;3.70;;;;;;;;;;4914313;29;20020;-75
2021/10/24 14:43:18;;;;;;;6.30;3.00;;;;;;;;;;4914543;29;20061;-75
2021/10/24 14:45:44;;;;;;;9.07;3.25;;;;;;;;;;4914337;29;20457;-73
2021/10/24 14:48:10;;;;;;;12.98;6.10;;;;;;;;;;4912984;29;20553;-74
2021/10/24 14:50:36;;;;;;;10.27;3.72;;;;;;;;;;4894447;29;20572;-76
2021/10/24 14:53:02;;;;;;;9.20;4.13;;;;;;;;;;4894462;29;20036;-76
2021/10/24 14:55:28;;;;;;;8.63;3.35;;;;;;;;;;4895806;29;20381;-78
2021/10/24 14:57:54;;;;;;;14.90;6.72;;;;;;;;;;4895154;29;20055;-79
2021/10/24 15:00:20;;;;;;;18.27;7.70;;;;;;;;;;4895257;29;20028;-79
2021/10/24 15:02:47;;;;;;;15.07;7.68;;;;;;;;;;4895376;29;20445;-80
2021/10/24 15:05:16;;;;;;;16.13;8.55;;;;;;;;;;4895058;29;20040;-79
2021/10/24 15:07:42;;;;;;;11.50;4.85;;;;;;;;;;4894794;29;20031;-70
2021/10/24 15:10:09;;;;;;;10.88;5.13;;;;;;;;;;4896925;29;20508;-77
2021/10/24 15:12:35;;;;;;;12.85;6.00;;;;;;;;;;4898674;29;20118;-77
2021/10/24 15:15:03;;;;;;;13.00;5.35;;;;;;;;;;4881582;29;20520;-74
2021/10/24 15:17:30;;;;;;;13.38;6.57;;;;;;;;;;4881635;29;20036;-74
2021/10/24 15:22:26;;;;;;;17.77;7.65;;;;;;;;;;4899876;29;20392;-71
2021/10/24 15:24:53;;;;;;;14.68;7.18;;;;;;;;;;4898303;29;20060;-70
2021/10/24 15:27:19;;;;;;;16.25;6.95;;;;;;;;;;4898138;29;20059;-75
2021/10/24 15:29:47;;;;;;;17.58;8.18;;;;;;;;;;4898469;29;20092;-76
2021/10/24 15:32:13;;;;;;;18.27;7.03;;;;;;;;;;4897997;29;20035;-72
2021/10/24 15:34:40;;;;;;;20.08;7.80;;;;;;;;;;4897929;29;20040;-74
2021/10/24 15:37:06;;;;;;;23.60;11.50;;;;;;;;;;4881144;29;20456;-72
2021/10/24 15:39:32;;;;;;;23.17;10.02;;;;;;;;;;4897686;29;20115;-74
2021/10/24 15:41:58;;;;;;;27.17;12.45;;;;;;;;;;4897741;29;20541;-75
2021/10/24 15:44:24;;;;;;;28.27;12.50;;;;;;;;;;4898107;29;20063;-69
2021/10/24 15:46:50;;;;;;;28.65;12.48;;;;;;;;;;4898009;29;20088;-69
2021/10/24 15:49:17;;;;;;;35.80;14.88;;;;;;;;;;4898093;29;20029;-76
2021/10/24 15:51:44;;;;;;;31.38;14.20;;;;;;;;;;4897963;29;20025;-79
2021/10/24 15:54:14;;;;;;;22.60;10.98;;;;;;;;;;4910393;29;20058;-75
2021/10/24 15:56:41;;;;;;;28.25;13.85;;;;;;;;;;4917584;29;20028;-79
2021/10/24 15:59:07;;;;;;;31.88;15.23;;;;;;;;;;4899187;29;20044;-81
2021/10/24 16:01:33;;;;;;;32.28;15.23;;;;;;;;;;4916652;29;20107;-75
2021/10/24 16:04:00;;;;;;;31.10;14.85;;;;;;;;;;4916836;29;20028;-75
2021/10/24 16:06:26;;;;;;;38.00;17.63;;;;;;;;;;4916500;29;20062;-73
2021/10/24 16:08:53;;;;;;;36.38;17.35;;;;;;;;;;4916497;29;20079;-71
2021/10/24 16:11:19;;;;;;;37.97;17.48;;;;;;;;;;4915992;29;20060;-75
2021/10/24 16:13:45;;;;;;;47.08;21.60;;;;;;;;;;4916370;29;20063;-74
2021/10/24 16:16:11;;;;;;;42.65;19.75;;;;;;;;;;4916374;29;20677;-75
2021/10/24 16:18:38;;;;;;;43.53;21.80;;;;;;;;;;4914966;29;20032;-74
2021/10/24 16:21:04;;;;;;;57.50;26.00;;;;;;;;;;4914069;29;20024;-73
2021/10/24 16:23:30;;;;;;;52.60;25.13;;;;;;;;;;4914655;29;20039;-71
2021/10/24 16:25:57;;;;;;;56.45;28.15;;;;;;;;;;4914075;29;20107;-72
2021/10/24 16:28:23;;;;;;;42.60;22.23;;;;;;;;;;4912208;29;20044;-74
2021/10/24 16:30:51;;;;;;;39.50;20.83;;;;;;;;;;4914720;29;20028;-75
2021/10/24 16:33:18;;;;;;;41.17;20.40;;;;;;;;;;4914662;29;20035;-78
2021/10/24 16:35:44;;;;;;;48.97;20.45;;;;;;;;;;4914588;29;20027;-78
2021/10/24 16:38:11;;;;;;;45.35;20.63;;;;;;;;;;4913714;29;20627;-74
2021/10/24 16:40:37;;;;;;;48.38;21.25;;;;;;;;;;4913420;29;20031;-81
2021/10/24 16:43:03;;;;;;;45.70;20.30;;;;;;;;;;4913312;29;20040;-76
2021/10/24 16:45:30;;;;;;;37.25;17.08;;;;;;;;;;4913227;29;20026;-76
2021/10/24 16:47:56;;;;;;;43.08;18.10;;;;;;;;;;4913510;29;20480;-80
2021/10/24 16:50:25;;;;;;;41.15;18.60;;;;;;;;;;4896543;29;20032;-77
2021/10/24 16:52:53;;;;;;;36.80;16.85;;;;;;;;;;4909546;29;20099;-74
2021/10/24 16:55:20;;;;;;;45.50;21.17;;;;;;;;;;4912898;29;20032;-76
2021/10/24 16:57:46;;;;;;;51.53;24.05;;;;;;;;;;4912656;29;20480;-66
2021/10/24 17:00:25;;;;;;;42.83;19.02;;;;;;;;;;4896447;29;20102;-73
2021/10/24 17:02:53;;;;;;;33.25;15.73;;;;;;;;;;4897502;29;20035;-68
2021/10/24 17:05:38;;;;;;;46.35;21.05;;;;;;;;;;4899358;29;20056;-67
2021/10/24 17:08:04;;;;;;;38.22;18.08;;;;;;;;;;4897226;29;20028;-70
2021/10/24 17:10:33;;;;;;;39.30;19.02;;;;;;;;;;4915658;29;20048;-73
2021/10/24 17:13:01;;;;;;;38.00;16.20;;;;;;;;;;4897300;29;20040;-67
2021/10/24 17:15:29;;;;;;;42.17;20.08;;;;;;;;;;4914384;29;20127;-74
2021/10/24 17:17:55;;;;;;;34.28;15.95;;;;;;;;;;4867320;29;20051;-69
2021/10/24 17:20:22;;;;;;;50.17;22.13;;;;;;;;;;4914013;29;20040;-75
2021/10/24 17:22:51;;;;;;;46.33;20.17;;;;;;;;;;4897226;29;20028;-71
2021/10/24 17:25:17;;;;;;;38.28;16.88;;;;;;;;;;4895655;29;20130;-71
2021/10/24 17:27:47;;;;;;;30.65;16.77;;;;;;;;;;4913693;29;20039;-72
2021/10/24 17:30:13;;;;;;;42.00;21.00;;;;;;;;;;4896882;29;20047;-72
2021/10/24 17:32:39;;;;;;;40.88;19.05;;;;;;;;;;4912928;29;20087;-70
2021/10/24 17:35:09;;;;;;;38.65;18.10;;;;;;;;;;4913143;29;20420;-69
2021/10/24 17:37:38;;;;;;;41.90;19.08;;;;;;;;;;4910745;29;20032;-68
2021/10/24 17:40:04;;;;;;;41.28;19.52;;;;;;;;;;4891686;29;20066;-73
2021/10/24 17:42:34;;;;;;;33.17;15.52;;;;;;;;;;4912943;29;20035;-66
2021/10/24 17:45:00;;;;;;;33.17;14.57;;;;;;;;;;4913592;29;20057;-66
2021/10/24 17:47:27;;;;;;;35.67;16.75;;;;;;;;;;4914782;29;20056;-65
2021/10/24 17:49:53;;;;;;;21.80;11.35;;;;;;;;;;4914272;29;20042;-66
2021/10/24 17:52:21;;;;;;;45.75;22.15;;;;;;;;;;4913473;29;20494;-69
2021/10/24 17:54:52;;;;;;;43.85;21.70;;;;;;;;;;4913937;29;20130;-67
2021/10/24 17:57:18;;;;;;;51.03;25.42;;;;;;;;;;4897202;29;20042;-67
2021/10/24 17:59:45;;;;;;;56.40;28.13;;;;;;;;;;4913984;29;20119;-65
2021/10/24 18:02:12;;;;;;;60.45;29.67;;;;;;;;;;4913823;29;20806;-65
2021/10/24 18:04:43;;;;;;;60.38;30.08;;;;;;;;;;4914276;29;20094;-69
2021/10/24 18:07:10;;;;;;;56.07;29.07;;;;;;;;;;4912155;29;20098;-67
2021/10/24 18:09:37;;;;;;;58.10;30.48;;;;;;;;;;4913060;29;20090;-66
2021/10/24 18:12:07;;;;;;;79.15;36.38;;;;;;;;;;4911615;29;20071;-67
2021/10/24 18:14:36;;;;;;;82.40;36.85;;;;;;;;;;4912393;29;20036;-65
2021/10/24 18:17:03;;;;;;;58.70;28.17;;;;;;;;;;4912454;29;20380;-63
2021/10/24 18:19:30;;;;;;;50.63;24.58;;;;;;;;;;4895373;29;20483;-64
2021/10/24 18:21:56;;;;;;;53.53;25.20;;;;;;;;;;4895988;29;20388;-63
2021/10/24 18:24:22;;;;;;;45.45;22.15;;;;;;;;;;4895028;29;20075;-71
2021/10/24 18:26:59;;;;;;;42.45;20.73;;;;;;;;;;4911969;29;20028;-68
2021/10/24 18:29:26;;;;;;;46.28;21.65;;;;;;;;;;4894416;29;20391;-66
2021/10/24 18:31:52;;;;;;;43.20;20.85;;;;;;;;;;4911944;29;20110;-66
2021/10/24 18:34:18;;;;;;;37.17;18.23;;;;;;;;;;4912830;29;20039;-67
2021/10/24 18:36:50;;;;;;;51.92;23.85;;;;;;;;;;4912139;29;20016;-64
2021/10/24 18:39:16;;;;;;;49.63;19.80;;;;;;;;;;4907418;29;20036;-63
2021/10/24 18:41:42;;;;;;;47.95;21.15;;;;;;;;;;4911846;29;20122;-68
2021/10/24 18:44:09;;;;;;;37.85;16.70;;;;;;;;;;4895618;29;20445;-67
2021/10/24 18:46:37;;;;;;;55.13;22.30;;;;;;;;;;4916428;29;20032;-68
2021/10/24 18:49:03;;;;;;;45.53;19.00;;;;;;;;;;4916521;29;20024;-66
2021/10/24 18:51:29;;;;;;;42.10;19.35;;;;;;;;;;4916204;29;20023;-70
2021/10/24 18:53:56;;;;;;;33.42;16.90;;;;;;;;;;4915899;29;20396;-65
2021/10/24 18:56:22;;;;;;;31.70;14.00;;;;;;;;;;4898477;29;20123;-66
2021/10/24 18:58:48;;;;;;;24.15;11.90;;;;;;;;;;4915764;29;20056;-66
2021/10/24 19:01:14;;;;;;;21.10;9.20;;;;;;;;;;4898828;29;20410;-65
2021/10/24 19:03:41;;;;;;;25.33;11.52;;;;;;;;;;4916363;29;20021;-69
2021/10/24 19:06:07;;;;;;;24.42;10.32;;;;;;;;;;4899361;29;20115;-66
2021/10/24 19:08:33;;;;;;;22.85;9.90;;;;;;;;;;4900387;29;20024;-66
2021/10/24 19:11:01;;;;;;;22.70;11.07;;;;;;;;;;4916896;29;20075;-68
2021/10/24 19:13:30;;;;;;;21.77;9.85;;;;;;;;;;4917220;29;20040;-66
2021/10/24 19:16:00;;;;;;;19.50;8.32;;;;;;;;;;4917032;29;20502;-67
2021/10/24 19:18:26;;;;;;;22.90;10.50;;;;;;;;;;4916970;29;20440;-69
2021/10/24 19:20:52;;;;;;;33.35;14.20;;;;;;;;;;4917255;29;20032;-66
2021/10/24 19:23:18;;;;;;;41.15;15.95;;;;;;;;;;4916894;29;20476;-67
2021/10/24 19:25:44;;;;;;;25.05;10.63;;;;;;;;;;4916972;29;20476;-69
2021/10/24 19:28:10;;;;;;;24.17;11.55;;;;;;;;;;4916688;29;20507;-67
2021/10/24 19:30:36;;;;;;;25.67;12.50;;;;;;;;;;4916668;29;20032;-71
2021/10/24 19:33:03;;;;;;;25.13;12.10;;;;;;;;;;4899966;29;20027;-70
2021/10/24 19:35:29;;;;;;;22.17;10.50;;;;;;;;;;4916782;29;20040;-65
2021/10/24 19:37:55;;;;;;;21.52;9.80;;;;;;;;;;4899812;29;20373;-65
2021/10/24 19:40:21;;;;;;;20.13;10.35;;;;;;;;;;4916381;29;20071;-66
2021/10/24 19:42:47;;;;;;;23.10;9.85;;;;;;;;;;4899243;29;20067;-65
2021/10/24 19:45:14;;;;;;;19.70;9.73;;;;;;;;;;4899350;29;20488;-65
2021/10/24 19:47:41;;;;;;;20.88;9.95;;;;;;;;;;4900091;29;20056;-66
2021/10/24 19:50:08;;;;;;;24.92;9.90;;;;;;;;;;4917002;29;20039;-66
2021/10/24 19:52:35;;;;;;;25.23;9.85;;;;;;;;;;4899560;29;20511;-65
2021/10/24 19:55:10;;;;;;;25.10;10.75;;;;;;;;;;4916447;29;20499;-65
2021/10/24 19:57:36;;;;;;;19.73;10.20;;;;;;;;;;4905760;29;20036;-67
2021/10/24 20:00:03;;;;;;;20.85;10.35;;;;;;;;;;4880735;29;20029;-67
2021/10/24 20:02:29;;;;;;;23.27;10.02;;;;;;;;;;4897653;29;20036;-66
2021/10/24 20:04:55;;;;;;;17.90;8.60;;;;;;;;;;4895625;29;20033;-66
2021/10/24 20:07:21;;;;;;;22.67;10.07;;;;;;;;;;4882987;29;20035;-68
2021/10/24 20:09:47;;;;;;;23.48;9.68;;;;;;;;;;4896593;29;20108;-66
2021/10/24 20:12:14;;;;;;;18.95;8.68;;;;;;;;;;4897678;29;20043;-66
2021/10/24 20:14:40;;;;;;;18.80;9.32;;;;;;;;;;4880349;29;20041;-66
2021/10/24 20:17:06;;;;;;;21.38;9.43;;;;;;;;;;4880360;29;20123;-68
2021/10/24 20:19:32;;;;;;;20.20;9.30;;;;;;;;;;4897174;29;20032;-66
2021/10/24 20:21:58;;;;;;;20.92;9.43;;;;;;;;;;4897315;29;20056;-68
2021/10/24 20:24:24;;;;;;;18.65;9.00;;;;;;;;;;4880083;29;20036;-67
2021/10/24 20:26:50;;;;;;;25.05;10.82;;;;;;;;;;4896985;29;20025;-66
2021/10/24 20:29:16;;;;;;;21.08;10.07;;;;;;;;;;4894165;29;20577;-65
2021/10/24 20:31:43;;;;;;;22.88;10.70;;;;;;;;;;4897023;29;20131;-67
2021/10/24 20:34:09;;;;;;;24.65;10.85;;;;;;;;;;4896714;29;20036;-65
2021/10/24 20:36:35;;;;;;;23.45;11.73;;;;;;;;;;4896639;29;20035;-66
2021/10/24 20:39:01;;;;;;;27.00;12.27;;;;;;;;;;4914432;29;20033;-67
2021/10/24 20:41:27;;;;;;;24.33;10.73;;;;;;;;;;4897265;29;20035;-66
2021/10/24 20:43:53;;;;;;;26.52;12.60;;;;;;;;;;4897320;29;20093;-67
2021/10/24 20:46:20;;;;;;;29.20;14.18;;;;;;;;;;4914051;29;20043;-67
2021/10/24 20:48:46;;;;;;;28.48;13.55;;;;;;;;;;4914320;29;20051;-67
2021/10/24 20:51:13;;;;;;;31.38;14.43;;;;;;;;;;4914318;29;20017;-66
2021/10/24 20:53:42;;;;;;;29.00;14.13;;;;;;;;;;4898395;29;20034;-67